Bryant, Illinois
Current Conditions -  °F | °C
As of 1:54 AM on Wednesday 26 Nov 2014 (Local Time) from KPIA Reporting Station
Clear Clear  
Wind Chill: -4°   Ceiling: Unl
Heat Index: -4°   Visibility: 9mi
Dew Point: -7°   Wind: 3mph
Humidity: 81%   Direction: 130°SE
Pressure: 30.13"   Gusts: NA
Location:  40.47°N, 90.09°W
Report Text: KPIA 260754Z 13003KT 9SM CLR M04/M07 A3013 RMK AO2 SLP212 T10441072
Loading
Personal Weather Stations






























Interactive Weather Map New forecast layout! Learn more

10-Day Weather Forecast

Advertisements
Track Severe Weather on mobile